Time;durP1;ratioP1;P1;durP2;ratioP2;P2;SDS_P1;SDS_P2;PMS_P1;PMS_P2;Temp;Humidity;BMP_temperature;BMP_pressure;BME280_temperature;BME280_humidity;BME280_pressure;Samples;Min_cycle;Max_cycle;Signal;HPM_P1;HPM_P2
2021/08/19 05:00:30;;;;;;;7.13;3.30;;;;;;;22.27;57.02;94768.41;6055524;23;20024;-73
2021/08/19 05:02:55;;;;;;;5.30;3.55;;;;;;;24.00;52.28;94772.16;4957198;28;20039;-74
2021/08/19 05:05:21;;;;;;;4.93;4.05;;;;;;;24.31;50.88;94765.16;4950284;29;20034;-74
2021/08/19 05:07:46;;;;;;;6.07;3.10;;;;;;;24.94;49.38;94771.94;4932554;29;20035;-74
2021/08/19 05:10:12;;;;;;;4.90;3.78;;;;;;;24.67;49.79;94770.28;4965231;28;20432;-74
2021/08/19 05:12:38;;;;;;;5.38;3.45;;;;;;;25.51;47.54;94775.13;4968128;28;20101;-74
2021/08/19 05:15:04;;;;;;;3.75;3.13;;;;;;;25.89;46.32;94772.91;4953056;28;20030;-74
2021/08/19 05:17:29;;;;;;;3.17;2.92;;;;;;;25.69;46.38;94769.25;4950858;28;20031;-74
2021/08/19 05:19:54;;;;;;;5.20;3.90;;;;;;;26.14;46.41;94778.13;4952268;28;20038;-74
2021/08/19 05:22:20;;;;;;;3.90;3.60;;;;;;;27.66;42.31;94773.44;4951558;28;20058;-74
2021/08/19 05:24:45;;;;;;;6.72;3.55;;;;;;;27.84;41.89;94769.25;4969519;28;20019;-74
2021/08/19 05:27:11;;;;;;;4.25;3.05;;;;;;;27.12;42.99;94778.97;4952663;28;20031;-74
2021/08/19 05:29:36;;;;;;;5.20;3.53;;;;;;;28.65;40.28;94777.13;4949693;28;20489;-74
2021/08/19 05:32:02;;;;;;;3.80;3.22;;;;;;;28.97;39.73;94776.41;4969858;28;20436;-74
2021/08/19 05:34:27;;;;;;;4.55;3.17;;;;;;;29.72;37.97;94778.94;4968468;28;20496;-74
2021/08/19 05:36:53;;;;;;;3.30;2.78;;;;;;;29.97;38.10;94781.16;4964901;28;20035;-74
2021/08/19 05:39:18;;;;;;;5.70;3.50;;;;;;;30.29;36.77;94782.94;4940308;28;20035;-74
2021/08/19 05:41:44;;;;;;;3.42;2.83;;;;;;;30.72;36.20;94789.56;4947322;28;20731;-74
2021/08/19 05:44:09;;;;;;;4.22;3.35;;;;;;;30.05;36.39;94787.72;4967085;28;20408;-73
2021/08/19 05:46:38;;;;;;;5.32;3.78;;;;;;;28.05;38.96;94780.50;4927261;28;20039;-73
2021/08/19 05:49:03;;;;;;;3.55;3.25;;;;;;;30.00;36.78;94779.78;4965322;28;20097;-73
2021/08/19 05:51:29;;;;;;;6.03;2.92;;;;;;;30.81;34.91;94778.94;4982921;28;20619;-73
2021/08/19 05:53:54;;;;;;;3.38;3.08;;;;;;;30.80;35.30;94772.78;4989039;28;20030;-73
2021/08/19 05:56:20;;;;;;;3.10;2.80;;;;;;;31.07;35.00;94779.97;4969985;28;20062;-73
2021/08/19 05:58:45;;;;;;;5.75;3.17;;;;;;;31.65;33.87;94781.81;4988419;28;20410;-73
2021/08/19 06:01:11;;;;;;;3.50;2.83;;;;;;;31.78;34.07;94776.38;4969669;28;20057;-73
2021/08/19 06:03:36;;;;;;;3.75;3.33;;;;;;;30.73;34.78;94780.44;4954170;28;20046;-73
2021/08/19 06:06:02;;;;;;;3.92;3.30;;;;;;;26.59;42.36;94775.28;4971186;28;20035;-73
2021/08/19 06:08:27;;;;;;;3.25;3.05;;;;;;;25.93;44.57;94772.13;4970278;28;20474;-73
2021/08/19 06:10:53;;;;;;;5.03;3.50;;;;;;;25.79;44.45;94775.59;4988479;28;20468;-73
2021/08/19 06:13:18;;;;;;;6.22;3.40;;;;;;;26.30;44.01;94776.25;4987194;28;20037;-73
2021/08/19 06:15:44;;;;;;;4.72;3.40;;;;;;;26.51;42.88;94772.41;4985676;28;20027;-73
2021/08/19 06:18:10;;;;;;;8.32;3.15;;;;;;;26.65;43.37;94776.84;4942402;28;20043;-72
2021/08/19 06:20:35;;;;;;;5.63;3.08;;;;;;;31.68;33.93;94762.44;4960242;28;20397;-74
2021/08/19 06:23:01;;;;;;;5.22;3.15;;;;;;;32.67;31.68;94765.34;4970220;28;20026;-71
2021/08/19 06:25:27;;;;;;;4.38;3.15;;;;;;;33.00;30.95;94754.13;4970756;28;20018;-73
2021/08/19 06:27:53;;;;;;;6.30;3.45;;;;;;;32.33;31.30;94752.59;4970855;28;20038;-72
2021/08/19 06:30:19;;;;;;;4.97;2.97;;;;;;;32.76;31.11;94755.38;4960845;28;20106;-73
2021/08/19 06:32:44;;;;;;;3.55;3.00;;;;;;;33.32;30.46;94761.72;4968197;28;20031;-73
2021/08/19 06:35:10;;;;;;;4.00;2.92;;;;;;;33.02;31.42;94747.34;4973824;28;20030;-73
2021/08/19 06:37:39;;;;;;;6.78;3.50;;;;;;;31.85;32.11;94749.88;4975512;28;20034;-73
2021/08/19 06:40:05;;;;;;;3.42;2.80;;;;;;;33.49;30.49;94747.47;4957911;28;20037;-72
2021/08/19 06:42:31;;;;;;;3.53;3.20;;;;;;;30.63;33.97;94753.88;4942283;28;20037;-73
2021/08/19 06:44:56;;;;;;;5.47;2.80;;;;;;;27.11;40.20;94760.59;4955362;28;20432;-73
2021/08/19 06:47:22;;;;;;;4.18;3.17;;;;;;;26.51;42.63;94767.91;4971614;28;20404;-71
2021/08/19 06:49:47;;;;;;;6.80;3.25;;;;;;;26.47;41.91;94750.91;4939308;28;20019;-74
2021/08/19 06:52:12;;;;;;;3.22;2.67;;;;;;;26.62;41.35;94750.81;4971326;28;20038;-73
2021/08/19 06:54:38;;;;;;;5.75;3.15;;;;;;;26.24;43.20;94746.25;4955897;28;20396;-73
2021/08/19 06:57:04;;;;;;;3.97;2.58;;;;;;;26.16;42.97;94747.63;4986946;28;20027;-73
2021/08/19 06:59:29;;;;;;;6.18;3.03;;;;;;;25.94;42.37;94743.72;4982660;28;20027;-74
2021/08/19 07:01:55;;;;;;;8.43;2.72;;;;;;;26.96;41.01;94752.75;4963526;28;20038;-73
2021/08/19 07:04:20;;;;;;;6.07;2.90;;;;;;;27.24;39.52;94751.97;4991414;28;20027;-73
2021/08/19 07:06:47;;;;;;;3.90;2.53;;;;;;;30.71;34.61;94755.88;4974537;28;20069;-73
2021/08/19 07:09:14;;;;;;;3.55;2.67;;;;;;;28.35;35.17;94748.19;4982458;28;20030;-73
2021/08/19 07:11:39;;;;;;;3.88;2.35;;;;;;;26.70;39.51;94750.25;4974691;28;20034;-72
2021/08/19 07:14:05;;;;;;;4.95;2.60;;;;;;;26.61;39.46;94757.22;4972674;28;20408;-73
2021/08/19 07:16:31;;;;;;;5.40;2.65;;;;;;;26.54;38.98;94751.41;4974390;28;20129;-74
2021/08/19 07:18:57;;;;;;;3.03;2.50;;;;;;;26.68;39.80;94755.03;4973322;28;20038;-72
2021/08/19 07:21:22;;;;;;;6.38;2.45;;;;;;;26.48;39.01;94741.88;4991018;28;20041;-74
2021/08/19 07:23:48;;;;;;;2.72;2.53;;;;;;;25.89;39.90;94747.16;4991720;28;20503;-74
2021/08/19 07:26:13;;;;;;;4.22;2.45;;;;;;;26.54;39.84;94745.28;4990206;28;20034;-72
2021/08/19 07:28:39;;;;;;;3.28;2.15;;;;;;;26.93;38.87;94738.16;4991664;28;20030;-73
2021/08/19 07:31:04;;;;;;;7.55;2.40;;;;;;;26.96;38.95;94747.44;4989940;28;20491;-73
2021/08/19 07:33:30;;;;;;;3.42;2.53;;;;;;;26.41;40.62;94743.25;4991904;28;20026;-73
2021/08/19 07:35:55;;;;;;;2.78;2.20;;;;;;;25.71;39.69;94736.34;4989428;28;20404;-73
2021/08/19 07:38:21;;;;;;;2.83;2.35;;;;;;;26.48;39.52;94749.06;4990887;28;20038;-73
2021/08/19 07:40:47;;;;;;;2.63;2.20;;;;;;;26.61;39.06;94741.28;4990563;28;20030;-73
2021/08/19 07:43:13;;;;;;;4.43;2.50;;;;;;;26.35;39.10;94739.81;4981021;28;20045;-73
2021/08/19 07:45:38;;;;;;;4.75;2.10;;;;;;;26.39;38.37;94745.38;4991476;28;20041;-74
2021/08/19 07:48:11;;;;;;;2.50;2.30;;;;;;;26.35;39.71;94744.34;4983585;28;20043;-72
2021/08/19 07:50:37;;;;;;;3.65;2.50;;;;;;;26.32;39.44;94742.22;4971881;28;20026;-74
2021/08/19 07:53:03;;;;;;;5.55;1.98;;;;;;;26.39;38.93;94743.53;4952691;28;20496;-74
2021/08/19 07:55:28;;;;;;;3.95;2.53;;;;;;;26.94;38.67;94745.03;4977703;28;20586;-73
2021/08/19 07:57:54;;;;;;;5.35;2.40;;;;;;;27.06;37.81;94736.72;4973076;28;20030;-73
2021/08/19 08:00:21;;;;;;;4.97;2.50;;;;;;;26.34;38.40;94732.13;4972751;28;20093;-73
2021/08/19 08:02:46;;;;;;;5.18;2.30;;;;;;;26.43;38.11;94725.94;4957447;28;20478;-74
2021/08/19 08:05:12;;;;;;;2.97;2.30;;;;;;;26.88;38.56;94732.06;4972256;28;20026;-74
2021/08/19 08:07:38;;;;;;;3.80;2.30;;;;;;;26.65;37.77;94728.22;4990232;28;20026;-74
2021/08/19 08:10:05;;;;;;;3.42;2.42;;;;;;;26.31;39.10;94725.50;4971131;28;20066;-75
2021/08/19 08:12:30;;;;;;;2.55;2.05;;;;;;;26.18;38.76;94721.56;4973772;28;20109;-74
2021/08/19 08:14:55;;;;;;;5.70;2.25;;;;;;;26.71;38.50;94727.13;4989182;28;20026;-74
2021/08/19 08:17:21;;;;;;;2.10;1.90;;;;;;;26.75;38.07;94724.72;4990425;28;20022;-73
2021/08/19 08:19:47;;;;;;;2.60;2.00;;;;;;;26.38;38.46;94719.88;4990190;28;20026;-73
2021/08/19 08:22:13;;;;;;;3.88;2.17;;;;;;;27.06;37.22;94715.44;4955828;28;20034;-74
2021/08/19 08:24:39;;;;;;;2.53;2.33;;;;;;;26.63;36.99;94712.53;4973189;28;20030;-74
2021/08/19 08:27:05;;;;;;;5.45;1.83;;;;;;;26.56;38.13;94708.59;4971047;28;20037;-75
2021/08/19 08:29:31;;;;;;;2.50;2.10;;;;;;;25.11;40.09;94706.97;4990396;28;20451;-74
2021/08/19 08:31:58;;;;;;;4.60;2.03;;;;;;;26.20;37.89;94697.38;4971451;28;20045;-73
2021/08/19 08:34:23;;;;;;;3.60;2.17;;;;;;;26.39;39.21;94703.69;4990487;28;20031;-74
2021/08/19 08:36:49;;;;;;;2.17;1.77;;;;;;;26.20;36.70;94700.03;4971303;28;20057;-74
2021/08/19 08:39:16;;;;;;;6.15;2.28;;;;;;;26.29;38.32;94695.75;4989269;28;20045;-74
2021/08/19 08:41:41;;;;;;;3.47;1.60;;;;;;;26.08;37.50;94692.38;4973191;28;20022;-74
2021/08/19 08:44:07;;;;;;;10.15;2.05;;;;;;;26.66;38.31;94696.03;4988705;28;20026;-73
2021/08/19 08:46:34;;;;;;;7.03;2.38;;;;;;;26.37;36.53;94691.72;4972261;28;20026;-75
2021/08/19 08:48:59;;;;;;;2.30;1.92;;;;;;;26.61;36.68;94688.13;4955782;28;20077;-74
2021/08/19 08:51:25;;;;;;;1.95;1.80;;;;;;;26.97;36.46;94693.19;4956543;28;20038;-74
2021/08/19 08:53:50;;;;;;;3.92;2.13;;;;;;;26.52;37.91;94688.97;4954890;28;20081;-70
2021/08/19 08:56:16;;;;;;;2.15;1.90;;;;;;;26.99;36.89;94685.72;4971382;28;20038;-75
2021/08/19 08:58:41;;;;;;;4.03;1.95;;;;;;;26.26;36.58;94680.38;4971576;28;20112;-76
2021/08/19 09:01:07;;;;;;;3.15;2.28;;;;;;;26.32;38.21;94683.78;4971244;28;20408;-75
2021/08/19 09:03:32;;;;;;;2.70;1.90;;;;;;;26.55;38.31;94683.13;4972371;28;20034;-74
2021/08/19 09:05:58;;;;;;;4.15;1.63;;;;;;;26.59;37.92;94676.16;4970520;28;20034;-75
2021/08/19 09:08:25;;;;;;;3.22;2.45;;;;;;;26.44;37.10;94676.25;4955984;28;20034;-75
2021/08/19 09:10:52;;;;;;;1.90;1.73;;;;;;;26.70;35.65;94678.47;4988451;28;20503;-75
2021/08/19 09:13:26;;;;;;;1.98;1.80;;;;;;;26.93;37.64;94668.22;4989486;28;20027;-75
2021/08/19 09:15:51;;;;;;;2.10;1.90;;;;;;;26.97;34.52;94664.69;4988737;28;20440;-75
2021/08/19 09:18:34;;;;;;;2.40;2.20;;;;;;;25.99;36.50;94666.69;4970973;28;20026;-75
2021/08/19 09:21:00;;;;;;;2.13;1.88;;;;;;;26.78;37.48;94660.34;4956593;28;20057;-75
2021/08/19 09:23:25;;;;;;;2.50;2.20;;;;;;;26.85;37.28;94669.59;4950135;28;20571;-74
2021/08/19 09:25:51;;;;;;;9.40;3.03;;;;;;;27.60;36.41;94670.75;4952598;28;20463;-74
2021/08/19 09:28:19;;;;;;;2.33;2.13;;;;;;;27.68;35.20;94664.78;4969790;28;20042;-75
2021/08/19 09:30:47;;;;;;;2.22;1.80;;;;;;;27.32;35.15;94658.28;4989617;28;20034;-74
2021/08/19 09:33:13;;;;;;;3.92;1.88;;;;;;;27.01;36.50;94659.63;4988474;28;20076;-77
2021/08/19 09:35:38;;;;;;;2.65;2.15;;;;;;;27.71;36.76;94653.56;4939036;28;20030;-75
2021/08/19 09:38:15;;;;;;;6.30;2.55;;;;;;;27.08;36.38;94649.44;4955913;28;20061;-76
2021/08/19 09:40:40;;;;;;;2.20;1.75;;;;;;;26.99;35.85;94646.63;4987658;28;20034;-76
2021/08/19 09:43:06;;;;;;;1.70;1.60;;;;;;;26.76;35.75;94636.69;4949226;28;20110;-77
2021/08/19 09:45:32;;;;;;;5.15;1.90;;;;;;;27.89;35.57;94636.06;4966003;28;20026;-75
2021/08/19 09:48:11;;;;;;;1.85;1.73;;;;;;;28.00;36.61;94628.72;4920734;28;20033;-74
2021/08/19 09:50:37;;;;;;;3.10;1.73;;;;;;;27.24;35.13;94635.72;4957059;28;20065;-74
2021/08/19 09:53:16;;;;;;;4.65;1.90;;;;;;;27.66;35.65;94623.56;4967194;28;20062;-76
2021/08/19 09:55:44;;;;;;;1.80;1.70;;;;;;;27.89;34.58;94632.59;4949379;28;20042;-75
2021/08/19 09:58:10;;;;;;;2.20;2.00;;;;;;;27.93;35.45;94621.09;4984486;28;20077;-75
2021/08/19 10:00:38;;;;;;;3.47;1.77;;;;;;;27.19;36.80;94619.81;4988543;28;20034;-75
2021/08/19 10:03:04;;;;;;;3.30;1.65;;;;;;;27.64;36.29;94618.53;4968097;28;20097;-77
2021/08/19 10:05:29;;;;;;;4.20;2.00;;;;;;;28.05;34.67;94610.00;4980364;28;20026;-76
2021/08/19 10:07:55;;;;;;;2.63;1.73;;;;;;;28.19;33.91;94610.91;4945246;28;20069;-76
2021/08/19 10:10:20;;;;;;;1.98;1.60;;;;;;;27.90;34.00;94612.88;4963609;28;20049;-76
2021/08/19 10:12:46;;;;;;;5.60;1.95;;;;;;;27.03;35.20;94606.97;4959521;28;20045;-75
2021/08/19 10:15:12;;;;;;;2.80;1.70;;;;;;;27.67;35.13;94609.97;4948643;28;20121;-74
2021/08/19 10:17:49;;;;;;;6.00;2.17;;;;;;;27.86;35.94;94609.19;4962321;28;20027;-75
2021/08/19 10:20:17;;;;;;;2.42;2.22;;;;;;;28.41;36.27;94608.44;4943734;28;20034;-75
2021/08/19 10:22:43;;;;;;;1.60;1.42;;;;;;;28.34;33.36;94597.34;4952089;28;20039;-75
2021/08/19 10:25:09;;;;;;;2.53;1.55;;;;;;;26.19;36.02;94600.19;4945408;28;20042;-75
2021/08/19 10:27:34;;;;;;;1.60;1.50;;;;;;;27.44;35.47;94588.69;4963974;28;20022;-74
2021/08/19 10:30:03;;;;;;;1.77;1.50;;;;;;;27.34;34.41;94592.25;4951708;28;20077;-74
2021/08/19 10:32:31;;;;;;;4.05;1.73;;;;;;;27.01;35.05;94591.28;4959414;28;20030;-75
2021/08/19 10:35:03;;;;;;;4.28;1.70;;;;;;;27.92;35.22;94587.53;4950950;28;20030;-75
2021/08/19 10:37:44;;;;;;;12.02;2.58;;;;;;;27.59;33.76;94589.31;4980827;28;20030;-76
2021/08/19 10:40:19;;;;;;;2.92;1.77;;;;;;;27.34;33.77;94596.78;4977578;28;20026;-75
2021/08/19 10:42:45;;;;;;;2.17;1.77;;;;;;;27.22;33.35;94581.22;4975045;28;20121;-76
2021/08/19 10:45:29;;;;;;;1.70;1.60;;;;;;;28.21;34.08;94587.41;4940745;28;20042;-74
2021/08/19 10:48:01;;;;;;;2.20;1.60;;;;;;;28.46;34.63;94584.34;4976138;28;20049;-75
2021/08/19 10:50:33;;;;;;;3.28;2.08;;;;;;;28.52;34.41;94588.53;4978093;28;20052;-77
2021/08/19 10:53:14;;;;;;;2.53;1.60;;;;;;;27.72;33.67;94583.28;4963532;28;20113;-76
2021/08/19 10:55:44;;;;;;;1.67;1.58;;;;;;;28.52;33.58;94591.19;4980223;28;20118;-76
2021/08/19 10:58:26;;;;;;;1.83;1.70;;;;;;;28.73;32.18;94581.00;4965000;28;20031;-75
2021/08/19 11:00:52;;;;;;;1.80;1.60;;;;;;;27.92;34.23;94578.75;4974289;28;20054;-75
2021/08/19 11:03:39;;;;;;;1.60;1.50;;;;;;;28.75;33.07;94570.84;4967388;28;20026;-75
2021/08/19 11:06:31;;;;;;;2.22;1.52;;;;;;;28.63;33.01;94576.63;4972508;28;20500;-76
2021/08/19 11:08:58;;;;;;;4.10;1.65;;;;;;;28.58;30.91;94563.34;4964304;28;20607;-76
2021/08/19 11:11:29;;;;;;;1.67;1.50;;;;;;;28.07;32.27;94570.56;4961561;28;20034;-73
2021/08/19 11:14:25;;;;;;;2.00;1.70;;;;;;;28.25;32.32;94562.56;4963158;28;20030;-76
2021/08/19 11:16:54;;;;;;;2.20;1.50;;;;;;;28.56;31.35;94565.53;4963321;28;20039;-76
2021/08/19 11:19:21;;;;;;;1.50;1.40;;;;;;;28.07;31.47;94557.25;4952103;28;20068;-76
2021/08/19 11:22:04;;;;;;;8.82;1.85;;;;;;;28.37;32.32;94556.00;4965030;28;20512;-75
2021/08/19 11:24:31;;;;;;;2.28;1.50;;;;;;;28.21;32.01;94560.78;4968515;28;20069;-75
2021/08/19 11:27:09;;;;;;;1.98;1.35;;;;;;;28.57;31.97;94545.78;4991133;28;20435;-74
2021/08/19 11:29:39;;;;;;;3.07;2.07;;;;;;;28.29;31.67;94549.44;4973147;28;20026;-75
2021/08/19 11:32:06;;;;;;;2.40;1.75;;;;;;;28.59;32.04;94556.16;4957166;28;20109;-74
2021/08/19 11:34:31;;;;;;;1.88;1.50;;;;;;;29.24;31.41;94554.19;4990942;28;20618;-75
2021/08/19 11:36:57;;;;;;;2.28;1.80;;;;;;;28.29;30.92;94541.44;4972445;28;20037;-77
2021/08/19 11:39:29;;;;;;;1.90;1.40;;;;;;;28.33;31.31;94545.13;4974193;28;20026;-74
2021/08/19 11:42:01;;;;;;;2.50;1.70;;;;;;;28.21;30.37;94542.91;4972258;28;20184;-75
2021/08/19 11:44:27;;;;;;;2.10;1.90;;;;;;;28.69;30.52;94545.34;4991164;28;20080;-74
2021/08/19 11:47:00;;;;;;;2.58;1.50;;;;;;;28.75;31.72;94541.50;4972291;28;20026;-72
2021/08/19 11:49:26;;;;;;;2.15;1.40;;;;;;;29.12;30.45;94548.56;4990931;28;20575;-74
2021/08/19 11:52:00;;;;;;;1.90;1.60;;;;;;;29.44;30.88;94532.47;4991253;28;20030;-72
2021/08/19 11:54:25;;;;;;;4.93;1.75;;;;;;;28.90;29.64;94540.44;4956483;28;20121;-74
2021/08/19 11:56:51;;;;;;;3.75;1.95;;;;;;;28.18;31.10;94532.84;4957333;28;20476;-74
2021/08/19 11:59:17;;;;;;;2.88;1.73;;;;;;;29.00;30.72;94541.03;4955950;28;20053;-72
2021/08/19 12:01:50;;;;;;;1.60;1.42;;;;;;;28.99;30.75;94525.34;4972502;28;20046;-73
2021/08/19 12:04:16;;;;;;;2.50;1.63;;;;;;;29.05;30.32;94537.47;4956787;28;20132;-75
2021/08/19 12:06:41;;;;;;;1.95;1.75;;;;;;;28.62;29.44;94513.69;4990434;28;20030;-73
2021/08/19 12:09:10;;;;;;;2.90;1.40;;;;;;;29.01;30.57;94529.28;4941185;28;20923;-73
2021/08/19 12:11:43;;;;;;;1.80;1.50;;;;;;;29.05;29.23;94524.16;4971770;28;20416;-74
2021/08/19 12:14:09;;;;;;;6.18;1.75;;;;;;;28.95;28.25;94519.00;4973547;28;20038;-74
2021/08/19 12:16:35;;;;;;;2.17;1.70;;;;;;;29.01;30.30;94512.47;4955502;28;20034;-74
2021/08/19 12:19:04;;;;;;;3.72;1.77;;;;;;;29.23;31.06;94517.91;4957001;28;20089;-75
2021/08/19 12:21:29;;;;;;;;;;;;;;;29.24;30.86;94519.50;4972861;28;20026;-74
2021/08/19 12:24:10;;;;;;;2.05;1.75;;;;;;;28.99;29.80;94515.47;4955644;28;19921;-74
2021/08/19 12:26:35;;;;;;;2.30;2.08;;;;;;;28.57;30.07;94505.81;4984055;28;20110;-76
2021/08/19 12:29:01;;;;;;;3.40;1.90;;;;;;;28.78;31.18;94509.69;4936154;28;20027;-75
2021/08/19 12:31:46;;;;;;;2.10;1.90;;;;;;;28.89;30.59;94506.84;4953685;28;20026;-75
2021/08/19 12:34:12;;;;;;;2.85;1.77;;;;;;;28.80;29.86;94500.63;4951287;28;20498;-75
2021/08/19 12:36:37;;;;;;;2.80;1.58;;;;;;;28.87;30.17;94495.66;4953588;28;20031;-74
2021/08/19 12:39:25;;;;;;;3.50;1.90;;;;;;;28.65;31.76;94494.47;4952889;28;20015;-75
2021/08/19 12:42:05;;;;;;;3.80;1.95;;;;;;;28.12;31.19;94498.56;4954819;28;20046;-75
2021/08/19 12:44:30;;;;;;;1.92;1.73;;;;;;;27.82;31.00;94499.81;4955504;28;20038;-75
2021/08/19 12:46:55;;;;;;;3.70;2.10;;;;;;;27.99;31.95;94496.63;4971405;28;20035;-76
2021/08/19 12:49:25;;;;;;;2.63;2.20;;;;;;;28.00;31.76;94491.00;4953454;28;20038;-75
2021/08/19 12:52:10;;;;;;;3.65;2.20;;;;;;;27.98;31.67;94479.06;4984180;28;20030;-75
2021/08/19 12:54:36;;;;;;;2.40;2.20;;;;;;;28.25;31.44;94476.50;4966137;28;20022;-76
2021/08/19 12:57:01;;;;;;;2.50;2.08;;;;;;;28.65;32.35;94493.66;4965652;28;20030;-74
2021/08/19 12:59:27;;;;;;;2.53;2.33;;;;;;;28.73;31.52;94488.47;4935250;28;20034;-74
2021/08/19 13:01:52;;;;;;;2.35;2.13;;;;;;;27.21;32.18;94475.88;4963924;28;20057;-74
2021/08/19 13:04:18;;;;;;;3.25;2.13;;;;;;;27.56;32.27;94471.97;4964029;28;20037;-74
2021/08/19 13:06:43;;;;;;;2.97;2.30;;;;;;;28.29;31.28;94474.81;4959960;28;20066;-75
2021/08/19 13:09:09;;;;;;;3.03;2.05;;;;;;;28.66;31.84;94477.41;4948972;28;20034;-76
2021/08/19 13:11:34;;;;;;;2.65;2.22;;;;;;;28.96;31.61;94475.25;4952299;28;20026;-76
2021/08/19 13:14:00;;;;;;;2.85;1.80;;;;;;;29.01;31.05;94473.25;4936789;28;20031;-74
2021/08/19 13:16:25;;;;;;;2.20;2.00;;;;;;;28.80;31.47;94465.94;4978537;28;20023;-76
2021/08/19 13:18:51;;;;;;;6.70;2.15;;;;;;;28.82;32.05;94469.91;4989567;28;20050;-75
2021/08/19 13:21:17;;;;;;;14.40;2.60;;;;;;;28.70;32.17;94475.72;4970220;28;20498;-76
2021/08/19 13:23:42;;;;;;;4.40;2.28;;;;;;;28.88;32.49;94475.91;4989128;28;20046;-78
2021/08/19 13:26:07;;;;;;;2.65;2.00;;;;;;;28.96;32.61;94477.91;4970103;28;20049;-76
2021/08/19 13:28:33;;;;;;;2.83;2.63;;;;;;;28.82;31.62;94463.78;4971954;28;20066;-75
2021/08/19 13:30:59;;;;;;;4.28;2.95;;;;;;;29.05;31.82;94473.44;4970901;28;20030;-72
2021/08/19 13:33:24;;;;;;;2.88;2.60;;;;;;;29.12;31.21;94468.50;4970416;28;20034;-74
2021/08/19 13:35:49;;;;;;;3.50;2.60;;;;;;;29.02;32.19;94466.03;4972103;28;20022;-75
2021/08/19 13:38:15;;;;;;;2.53;2.33;;;;;;;29.19;31.09;94484.88;4986999;28;20301;-75
2021/08/19 13:40:40;;;;;;;4.13;2.90;;;;;;;28.70;31.33;94467.72;4988742;28;20038;-76
2021/08/19 13:43:06;;;;;;;2.90;2.33;;;;;;;28.28;32.19;94465.28;4986816;28;20022;-78
2021/08/19 13:45:32;;;;;;;2.42;2.17;;;;;;;28.64;32.56;94463.53;4988362;28;20023;-77
2021/08/19 13:47:59;;;;;;;9.38;2.95;;;;;;;29.20;32.73;94473.13;4988083;28;20026;-73
2021/08/19 13:50:25;;;;;;;5.57;2.97;;;;;;;28.98;32.30;94471.19;4953325;28;20094;-77
2021/08/19 13:52:51;;;;;;;3.55;2.45;;;;;;;28.84;31.83;94458.91;4951624;28;20030;-75
2021/08/19 13:55:17;;;;;;;2.50;2.10;;;;;;;28.49;32.39;94463.81;4968085;28;20026;-76
2021/08/19 13:57:42;;;;;;;5.10;2.53;;;;;;;28.63;32.52;94469.16;4952139;28;20030;-77
2021/08/19 14:00:10;;;;;;;2.70;2.15;;;;;;;28.53;32.62;94472.81;4933903;28;20034;-77
2021/08/19 14:02:35;;;;;;;2.53;2.33;;;;;;;28.31;31.55;94467.34;4969455;28;20709;-78
2021/08/19 14:05:01;;;;;;;3.03;2.80;;;;;;;28.43;31.27;94462.31;4968193;28;20031;-78
2021/08/19 14:07:26;;;;;;;2.97;2.35;;;;;;;27.79;31.50;94463.09;4951494;28;20022;-80
2021/08/19 14:09:52;;;;;;;4.20;2.58;;;;;;;28.23;31.21;94457.34;4947874;28;20023;-80
2021/08/19 14:12:17;;;;;;;4.20;2.40;;;;;;;27.64;31.69;94458.03;4969410;28;20030;-81
2021/08/19 14:14:43;;;;;;;3.20;2.10;;;;;;;28.40;31.62;94456.78;4971226;28;20056;-78
2021/08/19 14:17:09;;;;;;;2.55;2.33;;;;;;;28.40;31.07;94454.91;4963453;28;20030;-78
2021/08/19 14:19:34;;;;;;;2.20;2.00;;;;;;;28.68;31.77;94459.22;4971718;28;20117;-75
2021/08/19 14:22:00;;;;;;;3.05;2.13;;;;;;;28.38;30.53;94457.09;4986400;28;20474;-81
2021/08/19 14:24:30;;;;;;;3.05;1.77;;;;;;;28.14;31.25;94459.09;4955416;28;20069;-83
2021/08/19 14:26:56;;;;;;;2.10;1.90;;;;;;;28.06;31.06;94455.22;4971011;28;20532;-76
2021/08/19 14:29:22;;;;;;;1.85;1.70;;;;;;;28.16;30.82;94451.59;4960968;28;20110;-79
2021/08/19 14:31:47;;;;;;;1.70;1.60;;;;;;;28.08;31.59;94455.75;4957381;28;20023;-82
2021/08/19 14:34:12;;;;;;;2.70;1.70;;;;;;;28.13;31.29;94458.31;4988028;28;20054;-79
2021/08/19 14:36:38;;;;;;;6.95;2.08;;;;;;;28.00;31.18;94448.38;4988940;28;20484;-79
2021/08/19 14:39:03;;;;;;;2.40;1.50;;;;;;;28.06;31.23;94446.47;4953972;28;20065;-80
2021/08/19 14:41:29;;;;;;;2.15;1.70;;;;;;;27.70;31.39;94457.66;4954979;28;20026;-79
2021/08/19 14:43:55;;;;;;;2.80;2.00;;;;;;;27.64;31.61;94456.16;4950935;28;20038;-79
2021/08/19 14:46:20;;;;;;;2.03;1.83;;;;;;;27.59;32.53;94450.09;4936483;28;20031;-79
2021/08/19 14:48:46;;;;;;;2.03;1.35;;;;;;;27.82;31.99;94454.53;4936311;28;20030;-79
2021/08/19 14:51:11;;;;;;;2.72;1.85;;;;;;;27.66;32.20;94453.19;4951404;28;20082;-78
2021/08/19 14:53:36;;;;;;;4.45;1.80;;;;;;;27.63;31.96;94457.22;4953883;28;20085;-78
2021/08/19 14:56:02;;;;;;;3.13;1.90;;;;;;;27.70;31.81;94457.66;4954432;28;20039;-80
2021/08/19 14:58:28;;;;;;;1.63;1.52;;;;;;;27.40;32.41;94452.72;4972722;28;20022;-78
2021/08/19 15:00:53;;;;;;;1.70;1.60;;;;;;;27.53;32.42;94457.38;4951214;28;20085;-81
2021/08/19 15:03:19;;;;;;;2.25;2.00;;;;;;;27.50;32.35;94460.59;4966019;28;20030;-77
2021/08/19 15:05:44;;;;;;;2.45;1.80;;;;;;;27.30;32.21;94460.06;4953972;28;20122;-79
2021/08/19 15:08:09;;;;;;;2.25;1.90;;;;;;;27.22;32.32;94458.84;4957852;28;20385;-80
2021/08/19 15:10:35;;;;;;;1.80;1.70;;;;;;;27.08;32.69;94464.06;4965605;28;20026;-78
2021/08/19 15:13:00;;;;;;;2.13;1.70;;;;;;;27.07;32.44;94462.47;4957393;28;20030;-80
2021/08/19 15:15:26;;;;;;;2.17;1.67;;;;;;;27.18;33.16;94465.81;4991927;28;20038;-81
2021/08/19 15:17:53;;;;;;;2.60;1.73;;;;;;;27.19;32.59;94465.53;4973095;28;20041;-80
2021/08/19 15:20:19;;;;;;;3.25;1.70;;;;;;;26.98;32.80;94466.06;4960262;28;20066;-82
2021/08/19 15:22:44;;;;;;;1.60;1.50;;;;;;;27.08;33.14;94465.94;4958814;28;20035;-81
2021/08/19 15:25:10;;;;;;;2.33;1.95;;;;;;;27.15;32.22;94471.69;4969263;28;20070;-78
2021/08/19 15:27:35;;;;;;;3.65;1.55;;;;;;;27.00;32.45;94463.91;4967993;28;20030;-78
2021/08/19 15:30:01;;;;;;;5.40;2.08;;;;;;;26.81;32.43;94471.81;4969434;28;20025;-80
2021/08/19 15:32:26;;;;;;;1.85;1.60;;;;;;;26.85;32.43;94469.41;4964019;28;20030;-77
2021/08/19 15:34:52;;;;;;;2.88;1.83;;;;;;;26.67;32.38;94469.06;4983809;28;20022;-81
2021/08/19 15:37:25;;;;;;;2.00;1.60;;;;;;;26.72;32.88;94466.31;4955157;28;20531;-80
2021/08/19 15:39:57;;;;;;;2.03;1.92;;;;;;;26.77;32.61;94468.16;4963916;28;20054;-81
2021/08/19 15:42:26;;;;;;;1.70;1.60;;;;;;;26.60;32.86;94467.78;4949555;28;20492;-79
2021/08/19 15:44:52;;;;;;;1.77;1.67;;;;;;;26.54;32.83;94467.06;4955041;28;20038;-79
2021/08/19 15:47:18;;;;;;;3.35;1.38;;;;;;;26.54;33.46;94475.03;4970050;28;20019;-82
2021/08/19 15:49:43;;;;;;;3.20;1.52;;;;;;;26.36;32.73;94469.66;4971389;28;20061;-76
2021/08/19 15:52:09;;;;;;;2.38;1.85;;;;;;;26.23;32.70;94478.28;4952394;28;20054;-79
2021/08/19 15:54:35;;;;;;;2.85;1.50;;;;;;;25.92;32.25;94440.53;4954917;28;20026;-77
2021/08/19 15:57:01;;;;;;;2.00;1.55;;;;;;;25.97;33.66;94470.50;4953012;28;20074;-79
2021/08/19 15:59:26;;;;;;;1.52;1.20;;;;;;;26.03;33.02;94468.59;4941123;28;20034;-78
2021/08/19 16:01:52;;;;;;;2.67;1.40;;;;;;;25.90;33.17;94480.63;4955951;28;20054;-80
2021/08/19 16:04:17;;;;;;;2.00;1.48;;;;;;;25.78;33.30;94477.56;4957145;28;20030;-80
2021/08/19 16:06:43;;;;;;;1.67;1.30;;;;;;;25.74;33.73;94479.16;4972046;28;20039;-79
2021/08/19 16:09:09;;;;;;;1.83;1.73;;;;;;;25.59;33.71;94480.03;4978109;28;20467;-84
2021/08/19 16:11:34;;;;;;;2.83;1.58;;;;;;;25.56;33.53;94485.91;4954040;28;20034;-77
2021/08/19 16:14:00;;;;;;;3.42;1.52;;;;;;;25.44;33.62;94488.06;4937079;28;20114;-79
2021/08/19 16:16:25;;;;;;;1.35;1.20;;;;;;;25.31;33.83;94480.72;4938772;28;20504;-79
2021/08/19 16:18:51;;;;;;;1.67;1.45;;;;;;;25.30;33.90;94486.31;4971736;28;20026;-79
2021/08/19 16:21:16;;;;;;;4.55;1.52;;;;;;;25.18;34.50;94487.41;4973053;28;20447;-78
2021/08/19 16:23:42;;;;;;;1.48;1.27;;;;;;;25.10;33.39;94493.31;4989613;28;20053;-78
2021/08/19 16:26:07;;;;;;;1.38;1.20;;;;;;;24.98;34.23;94492.78;4989898;28;20033;-80
2021/08/19 16:28:33;;;;;;;1.55;1.45;;;;;;;24.88;34.03;94495.50;4957051;28;20027;-80
2021/08/19 16:30:59;;;;;;;2.00;1.40;;;;;;;24.81;34.29;94494.16;4989106;28;20076;-76
2021/08/19 16:33:25;;;;;;;3.20;1.67;;;;;;;24.70;34.68;94496.06;4973339;28;20084;-80